Time;durP1;ratioP1;P1;durP2;ratioP2;P2;SDS_P1;SDS_P2;PMS_P1;PMS_P2;Temp;Humidity;BMP_temperature;BMP_pressure;BME280_temperature;BME280_humidity;BME280_pressure;Samples;Min_cycle;Max_cycle;Signal;HPM_P1;HPM_P2
2022/01/19 00:01:57;;;;;;;59.92;28.23;;;5.50;99.90;;;;;;5039553;27;20039;-93
2022/01/19 00:04:30;;;;;;;60.45;27.45;;;5.60;99.90;;;;;;5037062;27;20074;-95
2022/01/19 00:06:56;;;;;;;60.75;28.52;;;5.60;99.90;;;;;;5034028;27;20055;-94
2022/01/19 00:09:26;;;;;;;57.85;28.25;;;5.60;99.90;;;;;;5034780;27;20092;-93
2022/01/19 00:11:52;;;;;;;56.70;27.88;;;5.60;99.90;;;;;;5018968;27;20100;-95
2022/01/19 00:14:18;;;;;;;58.67;28.42;;;5.70;99.90;;;;;;5033280;27;20047;-94
2022/01/19 00:16:44;;;;;;;61.67;27.88;;;5.60;99.90;;;;;;5032656;27;20043;-94
2022/01/19 00:19:12;;;;;;;61.78;29.00;;;5.60;99.90;;;;;;5035812;27;20450;-95
2022/01/19 00:21:47;;;;;;;57.17;27.45;;;5.70;99.90;;;;;;5036627;27;20039;-94
2022/01/19 00:24:16;;;;;;;57.13;28.67;;;5.70;99.90;;;;;;5034996;27;20361;-95
2022/01/19 00:26:42;;;;;;;55.28;27.20;;;5.70;99.90;;;;;;5032985;27;20270;-94
2022/01/19 00:29:08;;;;;;;66.72;28.95;;;5.70;99.90;;;;;;5033254;27;20035;-94
2022/01/19 00:31:33;;;;;;;57.53;28.65;;;5.70;99.90;;;;;;5022273;27;20043;-94
2022/01/19 00:33:59;;;;;;;60.50;28.35;;;5.70;99.90;;;;;;5037579;27;20043;-94
2022/01/19 00:36:29;;;;;;;64.45;29.08;;;5.70;99.90;;;;;;5017435;27;20264;-94
2022/01/19 00:38:55;;;;;;;64.70;30.77;;;5.70;99.90;;;;;;5034989;27;20753;-94
2022/01/19 00:41:34;;;;;;;59.95;28.35;;;5.70;99.90;;;;;;5056249;27;20059;-96
2022/01/19 00:44:02;;;;;;;68.90;30.45;;;5.70;99.90;;;;;;5033249;27;20043;-93
2022/01/19 00:46:28;;;;;;;62.35;29.67;;;5.70;99.90;;;;;;5034570;27;20039;-94
2022/01/19 00:48:54;;;;;;;63.70;30.00;;;5.60;99.90;;;;;;5019078;27;20050;-95
2022/01/19 00:51:20;;;;;;;58.35;28.48;;;5.60;99.90;;;;;;5027669;27;20375;-95
2022/01/19 00:53:48;;;;;;;62.42;29.15;;;5.50;99.90;;;;;;5032761;27;20550;-95
2022/01/19 00:56:14;;;;;;;53.47;26.02;;;5.40;99.90;;;;;;5021066;27;20058;-95
2022/01/19 00:58:40;;;;;;;57.75;28.88;;;5.40;99.90;;;;;;5037393;27;20659;-94
2022/01/19 01:01:08;;;;;;;50.97;26.25;;;5.20;99.90;;;;;;5037626;27;20053;-94
2022/01/19 01:03:37;;;;;;;67.55;30.60;;;5.20;99.90;;;;;;5033464;27;20472;-95
2022/01/19 01:06:08;;;;;;;60.75;28.38;;;5.20;99.90;;;;;;5047105;27;20055;-95
2022/01/19 01:08:35;;;;;;;61.13;28.05;;;5.10;99.90;;;;;;5032492;27;20074;-94
2022/01/19 01:11:01;;;;;;;50.60;25.52;;;4.90;99.90;;;;;;5032454;27;20050;-94
2022/01/19 01:18:29;;;;;;;46.47;23.15;;;4.70;99.90;;;;;;5053410;27;20150;-93
2022/01/19 01:20:57;;;;;;;49.33;23.02;;;4.60;99.90;;;;;;5019851;27;20097;-95
2022/01/19 01:23:26;;;;;;;50.50;25.30;;;4.50;99.90;;;;;;5034602;27;20559;-95
2022/01/19 01:25:56;;;;;;;44.00;22.90;;;4.40;99.90;;;;;;5034052;27;20039;-95
2022/01/19 01:28:23;;;;;;;45.47;22.48;;;4.40;99.90;;;;;;5035167;27;20968;-94
2022/01/19 01:30:50;;;;;;;45.63;22.83;;;4.30;99.90;;;;;;5024854;27;20130;-96
2022/01/19 01:33:19;;;;;;;50.78;25.23;;;4.30;99.90;;;;;;5051434;27;20096;-96
2022/01/19 01:35:45;;;;;;;52.13;25.83;;;4.20;99.90;;;;;;5038094;27;20433;-95
2022/01/19 01:38:14;;;;;;;50.33;23.80;;;4.10;99.90;;;;;;5035028;27;20122;-95
2022/01/19 01:40:45;;;;;;;48.67;24.95;;;4.10;99.90;;;;;;5033006;27;20054;-95
2022/01/19 01:43:11;;;;;;;46.70;23.75;;;4.00;99.90;;;;;;5035946;27;20047;-95
2022/01/19 01:45:41;;;;;;;44.33;21.58;;;3.90;99.90;;;;;;5022768;27;20054;-95
2022/01/19 01:48:15;;;;;;;43.75;21.02;;;3.80;99.90;;;;;;5034629;27;20181;-95
2022/01/19 01:53:29;;;;;;;54.42;23.23;;;3.30;99.90;;;;;;5051139;27;20039;-95
2022/01/19 01:56:06;;;;;;;46.45;20.67;;;3.40;99.90;;;;;;5033981;27;20043;-95
2022/01/19 01:58:39;;;;;;;44.35;19.80;;;3.40;99.90;;;;;;5034700;27;20333;-93
2022/01/19 02:01:06;;;;;;;50.60;22.80;;;3.30;99.90;;;;;;5044366;27;20050;-95
2022/01/19 02:03:40;;;;;;;66.45;26.25;;;3.20;99.90;;;;;;5036325;27;20478;-95
2022/01/19 02:22:00;;;;;;;56.58;24.65;;;3.30;99.90;;;;;;5052024;27;20415;-95
2022/01/19 02:24:45;;;;;;;55.55;24.42;;;3.20;99.90;;;;;;5032041;27;20135;-94
2022/01/19 02:41:13;;;;;;;;;;;;;;;;;;;;;
2022/01/19 02:43:46;;;;;;;137.73;25.38;;;3.10;99.90;;;;;;5030855;28;20057;-92
2022/01/19 02:49:19;;;;;;;43.40;22.10;;;2.90;99.90;;;;;;5048769;28;20074;-94
2022/01/19 02:51:47;;;;;;;50.92;20.60;;;3.00;99.90;;;;;;5018126;28;20050;-95
2022/01/19 02:54:17;;;;;;;56.63;21.20;;;2.90;99.90;;;;;;5022307;28;20546;-94
2022/01/19 02:56:47;;;;;;;57.65;23.40;;;2.90;99.90;;;;;;5029080;28;20281;-95
2022/01/19 03:10:22;;;;;;;39.75;17.58;;;2.80;99.90;;;;;;5053646;27;20130;-93
2022/01/19 03:12:54;;;;;;;33.47;19.73;;;2.80;99.90;;;;;;5025559;27;20122;-94
2022/01/19 03:15:20;;;;;;;32.75;18.85;;;2.80;99.90;;;;;;5024489;27;20595;-92
2022/01/19 03:17:46;;;;;;;33.70;18.05;;;2.70;99.90;;;;;;5035597;27;21036;-93
2022/01/19 03:20:12;;;;;;;47.95;18.33;;;2.60;99.90;;;;;;5034995;27;20046;-94
2022/01/19 03:23:01;;;;;;;33.15;16.45;;;2.50;99.90;;;;;;5036213;27;20117;-94
2022/01/19 03:25:36;;;;;;;63.25;18.33;;;2.50;99.90;;;;;;5012570;27;20056;-95
2022/01/19 03:28:02;;;;;;;52.53;17.27;;;2.40;99.90;;;;;;5025327;27;20150;-94
2022/01/19 03:30:28;;;;;;;122.25;20.10;;;2.10;99.90;;;;;;5049553;27;20454;-93
2022/01/19 03:32:54;;;;;;;61.20;19.17;;;2.10;99.90;;;;;;5038090;27;20043;-94
2022/01/19 03:35:20;;;;;;;35.55;16.40;;;2.00;99.90;;;;;;5044027;27;20049;-93
2022/01/19 03:37:45;;;;;;;36.63;16.80;;;2.00;99.90;;;;;;5041828;27;20340;-94
2022/01/19 03:40:14;;;;;;;263.90;25.10;;;1.90;99.90;;;;;;4999335;28;20550;-93
2022/01/19 03:42:43;;;;;;;130.88;18.83;;;1.90;99.90;;;;;;5017334;28;20069;-94
2022/01/19 03:45:13;;;;;;;27.67;16.40;;;1.90;99.90;;;;;;5032690;28;20715;-94
2022/01/19 03:47:51;;;;;;;361.10;25.50;;;1.90;99.90;;;;;;5005768;28;20558;-93
2022/01/19 03:50:17;;;;;;;135.93;19.13;;;1.70;99.90;;;;;;5019405;28;20043;-94
2022/01/19 03:52:46;;;;;;;41.45;17.67;;;1.80;99.90;;;;;;5025203;28;20058;-93
2022/01/19 03:55:14;;;;;;;40.35;19.50;;;1.80;99.90;;;;;;5042424;28;20492;-94
2022/01/19 03:57:40;;;;;;;50.38;21.02;;;2.00;99.90;;;;;;5006661;28;20756;-94
2022/01/19 04:00:08;;;;;;;43.72;20.45;;;2.00;99.90;;;;;;5019406;28;20561;-94
2022/01/19 04:02:35;;;;;;;54.50;21.90;;;2.00;99.90;;;;;;5015686;28;20051;-94
2022/01/19 04:05:24;;;;;;;43.97;21.33;;;2.10;99.90;;;;;;5020970;28;20375;-93
2022/01/19 04:07:52;;;;;;;48.33;21.88;;;2.20;99.90;;;;;;5025395;28;20047;-93
2022/01/19 04:10:18;;;;;;;51.00;22.48;;;2.10;99.90;;;;;;5019128;28;20785;-93
2022/01/19 04:13:43;;;;;;;42.40;20.17;;;2.10;99.90;;;;;;5005981;28;20151;-94
2022/01/19 04:15:32;;;;;;;41.45;19.80;;;2.00;99.90;;;;;;5025505;28;20491;-93
2022/01/19 04:17:58;;;;;;;37.92;19.33;;;2.00;99.90;;;;;;5003850;28;20151;-93
2022/01/19 04:20:26;;;;;;;38.60;19.23;;;2.00;99.90;;;;;;5003870;28;20050;-94
2022/01/19 04:22:52;;;;;;;36.60;18.67;;;1.80;99.90;;;;;;5019361;28;20499;-94
2022/01/19 04:25:18;;;;;;;40.63;18.60;;;1.80;99.90;;;;;;4991146;28;20039;-93
2022/01/19 04:27:44;;;;;;;40.78;20.50;;;1.90;99.90;;;;;;5005808;28;20825;-93
2022/01/19 04:30:17;;;;;;;50.15;22.30;;;1.80;99.90;;;;;;5004898;28;20375;-93
2022/01/19 04:33:03;;;;;;;55.78;24.63;;;2.00;99.90;;;;;;5005424;28;20048;-95
2022/01/19 04:35:34;;;;;;;59.13;23.15;;;2.10;99.90;;;;;;5023793;28;20036;-94
2022/01/19 05:05:20;;;;;;;76.82;31.63;;;2.30;99.90;;;;;;5038083;28;20079;-92
2022/01/19 05:07:39;;;;;;;81.10;32.03;;;2.30;99.90;;;;;;5029610;28;20594;-92
2022/01/19 05:15:53;;;;;;;64.78;28.50;;;2.00;99.90;;;;;;5036172;28;20050;-93
2022/01/19 05:18:19;;;;;;;70.57;30.67;;;2.10;99.90;;;;;;5015722;28;20390;-93
2022/01/19 05:20:48;;;;;;;76.22;30.92;;;2.10;99.90;;;;;;5019624;28;20426;-93
2022/01/19 05:23:17;;;;;;;79.53;34.60;;;2.10;99.90;;;;;;5015493;28;20052;-92
2022/01/19 05:25:47;;;;;;;82.22;33.25;;;2.10;99.90;;;;;;5004830;28;20473;-93
2022/01/19 05:28:16;;;;;;;81.95;33.10;;;2.10;99.90;;;;;;5018672;28;20051;-93
2022/01/19 05:30:45;;;;;;;79.00;33.58;;;2.20;99.90;;;;;;5019021;28;20043;-93
2022/01/19 05:33:11;;;;;;;93.05;34.85;;;2.20;99.90;;;;;;5018696;28;20055;-93
2022/01/19 05:35:37;;;;;;;84.05;35.83;;;2.20;99.90;;;;;;5018394;28;20389;-92
2022/01/19 05:38:03;;;;;;;96.32;31.88;;;2.10;99.90;;;;;;5011783;28;21022;-93
2022/01/19 05:40:31;;;;;;;81.90;28.70;;;1.90;99.90;;;;;;5014193;28;20050;-92
2022/01/19 05:42:57;;;;;;;57.35;25.33;;;1.30;99.90;;;;;;4996232;28;20079;-92
2022/01/19 05:45:24;;;;;;;49.45;24.38;;;1.10;99.90;;;;;;4997168;28;20777;-93
2022/01/19 05:47:50;;;;;;;65.22;27.90;;;1.00;99.90;;;;;;5005459;28;20507;-92
2022/01/19 05:50:17;;;;;;;74.15;30.92;;;1.30;99.90;;;;;;4996468;28;20052;-92
2022/01/19 05:52:43;;;;;;;79.35;31.80;;;1.50;99.90;;;;;;5009549;28;20055;-92
2022/01/19 05:55:11;;;;;;;86.50;33.70;;;1.60;99.90;;;;;;5014584;28;20073;-93
2022/01/19 05:57:43;;;;;;;83.35;35.97;;;1.70;99.90;;;;;;4982113;28;20055;-92
2022/01/19 06:00:10;;;;;;;91.57;36.47;;;1.60;99.90;;;;;;5014022;28;20042;-93
2022/01/19 06:02:36;;;;;;;85.88;34.15;;;1.70;99.90;;;;;;5018522;28;20504;-94
2022/01/19 06:05:08;;;;;;;82.97;34.67;;;1.70;99.90;;;;;;5008342;28;20239;-92
2022/01/19 06:07:42;;;;;;;88.90;36.88;;;1.80;99.90;;;;;;5035257;28;20480;-92
2022/01/19 06:10:11;;;;;;;96.60;36.42;;;1.80;99.90;;;;;;5019587;28;20127;-95
2022/01/19 06:12:38;;;;;;;98.57;37.20;;;1.90;99.90;;;;;;5004695;28;20407;-92
2022/01/19 06:15:11;;;;;;;101.40;39.13;;;1.90;99.90;;;;;;4997676;28;20043;-93
2022/01/19 06:17:36;;;;;;;105.85;39.45;;;2.00;99.90;;;;;;5003999;28;20052;-93
2022/01/19 06:20:02;;;;;;;127.05;42.58;;;2.20;99.90;;;;;;4983798;28;20363;-94
2022/01/19 06:22:31;;;;;;;129.52;44.10;;;2.10;99.90;;;;;;5016921;28;20678;-94
2022/01/19 06:24:57;;;;;;;120.88;42.63;;;2.30;99.90;;;;;;5017942;28;20109;-93
2022/01/19 06:27:25;;;;;;;106.40;39.72;;;2.20;99.90;;;;;;5001035;28;20052;-93
2022/01/19 06:29:51;;;;;;;101.05;38.47;;;2.30;99.90;;;;;;5019748;28;20071;-93
2022/01/19 06:32:17;;;;;;;114.95;43.35;;;2.50;99.90;;;;;;5020808;28;20138;-93
2022/01/19 06:34:45;;;;;;;109.13;42.95;;;2.40;99.90;;;;;;5013712;28;20578;-92
2022/01/19 06:37:11;;;;;;;114.10;44.53;;;2.50;99.90;;;;;;4985297;28;20492;-93
2022/01/19 06:39:37;;;;;;;119.20;43.08;;;2.50;99.90;;;;;;5006199;28;20087;-94
2022/01/19 06:42:04;;;;;;;118.15;43.40;;;2.50;99.90;;;;;;5010844;28;20055;-94
2022/01/19 06:44:33;;;;;;;108.13;42.33;;;2.60;99.90;;;;;;5004420;28;20066;-93
2022/01/19 06:47:10;;;;;;;96.85;41.00;;;2.60;99.90;;;;;;5025540;28;20483;-94
2022/01/19 06:49:36;;;;;;;77.57;39.08;;;2.70;99.90;;;;;;4997114;28;20052;-94
2022/01/19 06:52:07;;;;;;;83.68;40.85;;;2.70;99.90;;;;;;5022349;28;20201;-95
2022/01/19 06:54:33;;;;;;;66.20;37.88;;;2.70;99.90;;;;;;5010399;28;20194;-95
2022/01/19 06:57:02;;;;;;;68.82;39.35;;;2.50;99.90;;;;;;5010531;28;20291;-95
2022/01/19 06:59:28;;;;;;;68.00;40.78;;;2.60;99.90;;;;;;5008991;28;20101;-93
2022/01/19 07:01:59;;;;;;;65.63;38.70;;;2.70;99.90;;;;;;5000394;28;20044;-95
2022/01/19 07:04:49;;;;;;;64.75;41.55;;;2.60;99.90;;;;;;5006975;28;20056;-95
2022/01/19 07:07:18;;;;;;;63.80;38.25;;;2.50;99.90;;;;;;5003662;28;20048;-95
2022/01/19 07:12:37;;;;;;;61.55;40.60;;;2.80;99.90;;;;;;5028671;28;20124;-95
2022/01/19 07:15:07;;;;;;;67.10;42.40;;;2.80;99.90;;;;;;5030890;28;20131;-95
2022/01/19 07:17:34;;;;;;;69.95;44.47;;;2.90;99.90;;;;;;5029485;28;20098;-91
2022/01/19 07:20:06;;;;;;;71.00;44.85;;;3.00;99.90;;;;;;4991405;28;20133;-91
2022/01/19 07:22:35;;;;;;;66.90;44.22;;;3.00;99.90;;;;;;5009119;28;20147;-93
2022/01/19 07:25:03;;;;;;;72.80;47.83;;;3.10;99.90;;;;;;5027526;28;20651;-94
2022/01/19 07:27:29;;;;;;;70.90;48.50;;;3.10;99.90;;;;;;5014891;28;20629;-95
2022/01/19 07:29:58;;;;;;;62.75;42.45;;;3.10;99.90;;;;;;5018744;28;20141;-95
2022/01/19 07:32:29;;;;;;;60.35;42.70;;;3.20;99.90;;;;;;4987412;28;20048;-95
2022/01/19 07:35:21;;;;;;;65.28;48.92;;;3.20;99.90;;;;;;5053154;28;20123;-95
2022/01/19 07:37:50;;;;;;;60.58;43.03;;;3.20;99.90;;;;;;5017034;28;20084;-94
2022/01/19 07:40:20;;;;;;;61.83;45.05;;;3.30;99.90;;;;;;5006989;28;20132;-93
2022/01/19 07:43:02;;;;;;;68.97;48.42;;;3.30;99.90;;;;;;5053796;28;20048;-94
2022/01/19 07:45:37;;;;;;;65.07;48.42;;;3.30;99.90;;;;;;5000954;28;20074;-96
2022/01/19 07:48:12;;;;;;;61.38;47.72;;;3.30;99.90;;;;;;5036648;28;20564;-93
2022/01/19 07:50:47;;;;;;;;;;;3.30;99.90;;;;;;5015950;28;20059;-95
2022/01/19 07:53:16;;;;;;;60.25;41.40;;;3.40;99.90;;;;;;5030756;28;20369;-95
2022/01/19 07:55:42;;;;;;;59.92;43.28;;;3.40;99.90;;;;;;5005192;28;20048;-94
2022/01/19 07:58:09;;;;;;;63.78;46.28;;;3.50;99.90;;;;;;5024104;28;20473;-94
2022/01/19 08:00:38;;;;;;;66.88;48.63;;;3.40;99.90;;;;;;5023054;28;20666;-94
2022/01/19 08:03:20;;;;;;;62.47;45.88;;;3.40;99.90;;;;;;5010998;28;20121;-94
2022/01/19 08:05:46;;;;;;;66.18;49.28;;;3.50;99.90;;;;;;5033766;28;20043;-92
2022/01/19 08:08:12;;;;;;;67.25;49.67;;;3.50;99.90;;;;;;5022240;28;20913;-93
2022/01/19 08:10:42;;;;;;;66.25;48.20;;;3.50;99.90;;;;;;5023180;28;20196;-94
2022/01/19 08:13:11;;;;;;;62.97;46.03;;;3.50;99.90;;;;;;5004507;28;20048;-93
2022/01/19 08:15:40;;;;;;;72.60;50.58;;;3.60;99.90;;;;;;5038328;28;20050;-93
2022/01/19 08:18:06;;;;;;;70.07;51.70;;;3.60;99.90;;;;;;5017952;28;20301;-94
2022/01/19 08:20:42;;;;;;;76.57;50.47;;;3.60;99.90;;;;;;5009689;28;20039;-93
2022/01/19 08:23:17;;;;;;;67.88;48.95;;;3.70;99.90;;;;;;5020801;28;20198;-94
2022/01/19 08:25:45;;;;;;;69.85;45.92;;;3.70;99.90;;;;;;5001396;28;20047;-92
2022/01/19 08:28:12;;;;;;;75.50;47.75;;;3.70;99.90;;;;;;5016175;28;20408;-94
2022/01/19 08:30:38;;;;;;;79.15;53.20;;;3.70;99.90;;;;;;5018705;28;20353;-93
2022/01/19 08:33:09;;;;;;;77.85;53.00;;;3.80;99.90;;;;;;5021063;28;20047;-94
2022/01/19 08:35:35;;;;;;;75.35;52.03;;;3.90;99.90;;;;;;4998846;28;20039;-93
2022/01/19 08:38:03;;;;;;;83.18;53.95;;;3.90;99.90;;;;;;5007090;28;20621;-96
2022/01/19 08:40:30;;;;;;;79.15;52.92;;;3.90;99.90;;;;;;5020407;28;20112;-94
2022/01/19 08:43:07;;;;;;;82.63;51.67;;;3.90;99.90;;;;;;5021692;28;20069;-94
2022/01/19 08:45:33;;;;;;;84.65;51.22;;;3.90;99.90;;;;;;5036602;28;20047;-89
2022/01/19 08:48:05;;;;;;;83.78;52.17;;;3.90;99.90;;;;;;5033055;28;20920;-94
2022/01/19 08:50:37;;;;;;;81.10;52.63;;;3.90;99.90;;;;;;5031571;28;20049;-95
2022/01/19 08:53:06;;;;;;;81.70;51.83;;;3.90;99.90;;;;;;5047717;28;20300;-94
2022/01/19 08:55:57;;;;;;;79.97;52.28;;;4.00;99.90;;;;;;5053945;28;20362;-92
2022/01/19 08:58:26;;;;;;;80.05;52.63;;;4.00;99.90;;;;;;5032183;28;20058;-94
2022/01/19 09:00:55;;;;;;;77.07;51.30;;;4.00;99.90;;;;;;5024276;28;20407;-96
2022/01/19 09:03:21;;;;;;;83.18;52.63;;;3.90;99.90;;;;;;5010352;28;20277;-93
2022/01/19 09:05:56;;;;;;;82.60;51.80;;;4.00;99.90;;;;;;5030489;28;20523;-92
2022/01/19 09:08:24;;;;;;;84.80;51.88;;;4.00;99.90;;;;;;5031045;28;20130;-92
2022/01/19 09:11:12;;;;;;;84.47;53.97;;;4.10;99.90;;;;;;5026736;28;20039;-96
2022/01/19 09:13:47;;;;;;;82.20;52.28;;;4.00;99.90;;;;;;5027776;28;20539;-92
2022/01/19 09:16:12;;;;;;;84.63;51.53;;;4.10;99.90;;;;;;5012338;28;20116;-94
2022/01/19 09:18:41;;;;;;;81.82;50.47;;;4.10;99.90;;;;;;5023662;28;20608;-95
2022/01/19 09:21:07;;;;;;;84.43;51.22;;;4.10;99.90;;;;;;5029475;28;20582;-90
2022/01/19 09:23:37;;;;;;;91.07;52.88;;;4.10;99.90;;;;;;5013447;28;20548;-95
2022/01/19 09:26:04;;;;;;;86.25;53.25;;;4.10;99.90;;;;;;5032986;28;20124;-92
2022/01/19 09:28:35;;;;;;;92.07;54.63;;;4.10;99.90;;;;;;5046307;28;20069;-95
2022/01/19 09:31:10;;;;;;;91.53;53.58;;;4.20;99.90;;;;;;5023472;28;20101;-93
2022/01/19 09:33:36;;;;;;;89.70;54.38;;;4.20;99.90;;;;;;5030742;28;20550;-93
2022/01/19 09:38:34;;;;;;;91.30;54.78;;;4.30;99.90;;;;;;5045760;28;20300;-92
2022/01/19 09:41:05;;;;;;;92.15;54.58;;;4.30;99.90;;;;;;5044230;28;20450;-95
2022/01/19 09:43:35;;;;;;;96.10;53.92;;;4.20;99.90;;;;;;5018045;28;20051;-93
2022/01/19 09:46:07;;;;;;;92.78;54.10;;;4.30;99.90;;;;;;5026951;28;20083;-92
2022/01/19 09:48:33;;;;;;;93.07;55.00;;;4.30;99.90;;;;;;4990192;28;20031;-91
2022/01/19 09:51:01;;;;;;;99.35;56.20;;;4.30;99.90;;;;;;5009442;28;20649;-90
2022/01/19 09:53:28;;;;;;;92.32;56.80;;;4.40;99.90;;;;;;5011479;28;20055;-93
2022/01/19 09:55:57;;;;;;;95.88;55.35;;;4.40;99.90;;;;;;5013960;28;20090;-93
2022/01/19 09:58:22;;;;;;;104.63;57.25;;;4.30;99.90;;;;;;5026901;28;20599;-92
2022/01/19 10:00:50;;;;;;;96.80;56.58;;;4.40;99.90;;;;;;5010410;28;20781;-95
2022/01/19 10:03:28;;;;;;;95.63;55.88;;;4.40;99.90;;;;;;5010776;28;20368;-92
2022/01/19 10:06:10;;;;;;;104.10;56.63;;;4.40;99.90;;;;;;5018195;28;20036;-95
2022/01/19 10:08:47;;;;;;;104.38;58.13;;;4.30;99.90;;;;;;5011122;28;20043;-94
2022/01/19 10:11:29;;;;;;;106.82;57.80;;;4.40;99.90;;;;;;5011830;28;20391;-94
2022/01/19 10:19:56;;;;;;;114.32;57.95;;;4.50;99.90;;;;;;5024404;28;20040;-93
2022/01/19 10:22:25;;;;;;;112.93;57.97;;;4.60;99.90;;;;;;5022952;28;20527;-93
2022/01/19 10:25:04;;;;;;;114.78;59.47;;;4.70;99.90;;;;;;5016548;28;20044;-95
2022/01/19 10:27:48;;;;;;;108.50;57.03;;;4.70;99.90;;;;;;5016154;28;20080;-94
2022/01/19 10:30:26;;;;;;;115.30;58.88;;;4.80;99.90;;;;;;5012887;28;20055;-93
2022/01/19 10:33:00;;;;;;;121.65;59.10;;;4.80;99.90;;;;;;5014335;28;20051;-94
2022/01/19 10:35:33;;;;;;;113.70;58.33;;;4.80;99.90;;;;;;5014581;28;20040;-93
2022/01/19 10:38:31;;;;;;;117.93;56.17;;;4.60;99.90;;;;;;5023112;28;20235;-92
2022/01/19 10:41:19;;;;;;;123.55;58.42;;;4.60;99.90;;;;;;5009827;28;20062;-92
2022/01/19 10:44:12;;;;;;;125.60;59.13;;;4.70;99.90;;;;;;5016563;28;20066;-94
2022/01/19 10:46:39;;;;;;;127.38;59.50;;;4.60;99.90;;;;;;5016705;28;20389;-93
2022/01/19 10:49:16;;;;;;;125.57;59.25;;;4.60;99.90;;;;;;5027287;28;20172;-93
2022/01/19 10:51:56;;;;;;;124.53;58.28;;;4.60;99.90;;;;;;5025441;28;20050;-94
2022/01/19 10:54:25;;;;;;;123.85;58.25;;;4.60;99.90;;;;;;5029267;28;20055;-92
2022/01/19 10:56:58;;;;;;;128.80;60.72;;;4.50;99.90;;;;;;5013922;28;20353;-95
2022/01/19 10:59:32;;;;;;;122.68;58.15;;;4.50;99.90;;;;;;5005252;28;20040;-92
2022/01/19 11:02:00;;;;;;;126.13;59.13;;;4.60;99.90;;;;;;5028399;28;20813;-93
2022/01/19 11:04:30;;;;;;;116.05;56.45;;;4.50;99.90;;;;;;5029292;28;20047;-94
2022/01/19 11:07:08;;;;;;;121.65;57.25;;;4.50;99.90;;;;;;5042345;28;20586;-96
2022/01/19 11:09:57;;;;;;;115.55;55.67;;;4.50;99.90;;;;;;5031888;28;20126;-96
2022/01/19 11:12:34;;;;;;;127.88;58.20;;;4.50;99.90;;;;;;5030550;28;20052;-94
2022/01/19 11:15:03;;;;;;;115.35;54.63;;;4.40;99.90;;;;;;5032524;28;20054;-92
2022/01/19 11:17:36;;;;;;;118.60;55.92;;;4.40;99.90;;;;;;5012856;28;20480;-95
2022/01/19 11:20:30;;;;;;;115.68;56.53;;;4.50;99.90;;;;;;5030121;28;20406;-95
2022/01/19 11:23:18;;;;;;;118.18;56.28;;;4.40;99.90;;;;;;5015959;28;20446;-93
2022/01/19 11:26:04;;;;;;;118.05;56.35;;;4.50;99.90;;;;;;5028126;28;20774;-94
2022/01/19 11:28:44;;;;;;;118.70;56.72;;;4.50;99.90;;;;;;5036739;28;20040;-93
2022/01/19 11:31:14;;;;;;;115.57;57.08;;;4.50;99.90;;;;;;5037963;28;20866;-93
2022/01/19 11:33:53;;;;;;;113.38;56.55;;;4.50;99.90;;;;;;5033106;28;20604;-93
2022/01/19 11:36:34;;;;;;;113.25;58.05;;;4.50;99.90;;;;;;5035130;28;20121;-93
2022/01/19 11:39:45;;;;;;;110.43;56.72;;;4.50;99.90;;;;;;5034032;28;20082;-94
2022/01/19 11:42:23;;;;;;;109.72;56.47;;;4.40;99.90;;;;;;5051791;27;20578;-94
2022/01/19 11:44:59;;;;;;;108.60;57.17;;;4.50;99.90;;;;;;5061287;27;20174;-96
2022/01/19 11:47:30;;;;;;;107.03;56.40;;;4.50;99.90;;;;;;5038430;27;20047;-93
2022/01/19 11:50:13;;;;;;;110.05;57.60;;;4.50;99.90;;;;;;5038052;27;20074;-95
2022/01/19 11:52:40;;;;;;;114.15;57.65;;;4.40;99.90;;;;;;5036513;27;20371;-94
2022/01/19 11:55:33;;;;;;;108.18;55.60;;;4.50;99.90;;;;;;5032346;27;20450;-94
2022/01/19 11:58:33;;;;;;;109.32;57.25;;;4.50;99.90;;;;;;5037103;27;20050;-95
2022/01/19 12:01:00;;;;;;;108.07;58.05;;;4.50;99.90;;;;;;5032219;27;20150;-91
2022/01/19 12:03:38;;;;;;;118.47;60.65;;;4.50;99.90;;;;;;5047950;27;20300;-91
2022/01/19 12:06:06;;;;;;;114.38;57.33;;;4.50;99.90;;;;;;5039756;27;20046;-94
2022/01/19 12:08:35;;;;;;;113.53;58.70;;;4.50;99.90;;;;;;5021138;27;20050;-93
2022/01/19 12:11:10;;;;;;;110.72;57.92;;;4.50;99.90;;;;;;5036454;27;20047;-94
2022/01/19 12:13:59;;;;;;;109.93;60.28;;;4.50;99.90;;;;;;5032474;27;20039;-93
2022/01/19 12:19:14;;;;;;;113.47;61.28;;;4.50;99.90;;;;;;5047065;27;20578;-94
2022/01/19 12:21:48;;;;;;;113.75;59.88;;;4.50;99.90;;;;;;5032238;27;20069;-92
2022/01/19 12:24:25;;;;;;;111.05;61.03;;;4.50;99.90;;;;;;5035611;27;20047;-95
2022/01/19 12:27:05;;;;;;;114.03;60.97;;;4.40;99.90;;;;;;5031508;27;20419;-94
2022/01/19 12:29:34;;;;;;;120.13;60.60;;;4.50;99.90;;;;;;5023458;27;20050;-91
2022/01/19 12:32:10;;;;;;;119.43;62.80;;;4.50;99.90;;;;;;5046554;27;20050;-93
2022/01/19 12:34:49;;;;;;;114.93;61.03;;;4.60;99.90;;;;;;5030574;27;20035;-93
2022/01/19 12:37:44;;;;;;;106.30;60.33;;;4.60;99.90;;;;;;5036945;27;20345;-94
2022/01/19 12:40:13;;;;;;;102.90;60.67;;;4.70;99.90;;;;;;5029873;27;20044;-91
2022/01/19 12:42:56;;;;;;;112.95;59.75;;;4.60;99.90;;;;;;5026027;27;20599;-93
2022/01/19 12:45:50;;;;;;;102.20;58.60;;;4.80;99.90;;;;;;5043000;27;20104;-90
2022/01/19 12:48:36;;;;;;;;;;;4.80;99.90;;;;;;5025551;27;20082;-91
2022/01/19 12:51:03;;;;;;;97.90;57.60;;;4.80;99.90;;;;;;5023291;27;20327;-93
2022/01/19 12:53:32;;;;;;;101.88;59.08;;;4.80;99.90;;;;;;5024671;27;20058;-93
2022/01/19 12:56:04;;;;;;;99.80;58.05;;;4.70;99.90;;;;;;5029548;27;20654;-92
2022/01/19 12:58:33;;;;;;;99.80;58.72;;;4.70;99.90;;;;;;5029945;27;20418;-90
2022/01/19 13:01:05;;;;;;;99.63;59.35;;;4.80;99.90;;;;;;5047695;27;20071;-93
2022/01/19 13:03:37;;;;;;;102.22;60.05;;;4.70;99.90;;;;;;5034874;27;20118;-93
2022/01/19 13:06:13;;;;;;;97.63;58.83;;;4.70;99.90;;;;;;5042923;27;20061;-95
2022/01/19 13:08:46;;;;;;;95.32;58.80;;;4.70;99.90;;;;;;5027104;27;20043;-88
2022/01/19 13:11:38;;;;;;;101.72;60.78;;;4.70;99.90;;;;;;5034123;27;20512;-93
2022/01/19 13:14:09;;;;;;;106.28;60.72;;;4.70;99.90;;;;;;5051050;27;20120;-93
2022/01/19 13:16:58;;;;;;;113.00;63.33;;;4.80;99.90;;;;;;5032008;27;20560;-91
2022/01/19 13:19:26;;;;;;;112.03;61.83;;;4.80;99.90;;;;;;5010524;27;20043;-92
2022/01/19 13:22:08;;;;;;;109.43;60.25;;;4.70;99.90;;;;;;5005212;27;20242;-94
2022/01/19 13:24:37;;;;;;;113.50;64.25;;;4.70;99.90;;;;;;5028656;27;20859;-90
2022/01/19 13:27:26;;;;;;;110.82;62.25;;;4.80;99.90;;;;;;5039100;27;20042;-92
2022/01/19 13:29:58;;;;;;;111.13;63.55;;;4.80;99.90;;;;;;5007571;27;20058;-92
2022/01/19 13:32:26;;;;;;;99.65;59.92;;;4.80;99.90;;;;;;5020493;27;20031;-89
2022/01/19 13:35:04;;;;;;;107.70;59.30;;;4.80;99.90;;;;;;5012129;27;20118;-91
2022/01/19 13:37:38;;;;;;;113.43;63.33;;;4.80;99.90;;;;;;5024638;27;20042;-92
2022/01/19 13:40:10;;;;;;;112.78;61.53;;;4.80;99.90;;;;;;5051293;27;20242;-95
2022/01/19 13:42:42;;;;;;;112.80;62.05;;;4.80;99.90;;;;;;5030724;27;20058;-91
2022/01/19 13:51:15;;;;;;;105.43;59.60;;;4.90;99.90;;;;;;5047582;27;20380;-95
2022/01/19 13:53:46;;;;;;;104.82;59.08;;;4.80;99.90;;;;;;5032438;27;20346;-92
2022/01/19 13:56:25;;;;;;;103.97;59.50;;;4.90;99.90;;;;;;5035250;27;20073;-93
2022/01/19 13:59:14;;;;;;;110.13;60.72;;;4.90;99.90;;;;;;5022800;27;20054;-91
2022/01/19 14:01:57;;;;;;;103.10;58.40;;;5.00;99.90;;;;;;5024905;27;20051;-94
2022/01/19 14:04:25;;;;;;;98.18;56.90;;;5.10;99.90;;;;;;5023627;27;20050;-94
2022/01/19 14:07:03;;;;;;;97.03;57.42;;;5.10;99.90;;;;;;5043552;27;20555;-93
2022/01/19 14:09:36;;;;;;;95.20;55.92;;;5.10;99.90;;;;;;5030966;27;20115;-91
2022/01/19 14:12:16;;;;;;;92.78;55.92;;;5.00;99.90;;;;;;5012085;27;20051;-92
2022/01/19 14:14:48;;;;;;;99.03;58.03;;;5.00;99.90;;;;;;5038423;27;20170;-92
2022/01/19 14:17:24;;;;;;;97.25;57.30;;;5.00;99.90;;;;;;5034013;27;20273;-92
2022/01/19 14:19:50;;;;;;;100.95;58.28;;;5.00;99.90;;;;;;5022624;27;20131;-94
2022/01/19 14:22:29;;;;;;;99.97;58.38;;;5.00;99.90;;;;;;5033052;27;20043;-91
2022/01/19 14:25:07;;;;;;;94.05;55.90;;;5.00;99.90;;;;;;5031535;27;20100;-92
2022/01/19 14:27:42;;;;;;;91.55;57.17;;;5.00;99.90;;;;;;5031745;27;20180;-91
2022/01/19 14:30:14;;;;;;;93.27;56.10;;;5.10;99.90;;;;;;5032265;27;20047;-92
2022/01/19 14:32:46;;;;;;;100.03;57.28;;;5.10;99.90;;;;;;5031104;27;20074;-94
2022/01/19 14:35:29;;;;;;;94.85;56.70;;;5.10;99.90;;;;;;5051042;28;20053;-94
2022/01/19 14:38:46;;;;;;;113.15;57.13;;;5.00;99.90;;;;;;5038651;28;20064;-92
2022/01/19 14:41:36;;;;;;;98.07;56.50;;;5.10;99.90;;;;;;4972217;28;20048;-92
2022/01/19 14:44:19;;;;;;;92.80;55.97;;;5.10;99.90;;;;;;5037217;28;20047;-92
2022/01/19 14:47:05;;;;;;;89.80;55.38;;;5.10;99.90;;;;;;5030878;28;20039;-94